Uvalde Research's Hourly Summary for Sunday, May 13, 2018
Hour Temp
(f)
RH
(%)
Solar Rad.
(MJ/m2)
Rainfall
(in)
Wind
(mph)
5/13/2018 12:00 AM 0 0 0 0 0
5/13/2018 1:00 AM 75 86 0 0 3.89
5/13/2018 2:00 AM 74 88 0 0 3.29
5/13/2018 3:00 AM 74 88 0 0 3.2
5/13/2018 4:00 AM 74 88 0 0 3.39
5/13/2018 5:00 AM 74 88 0 0 3.29
5/13/2018 6:00 AM 73 88 0 0 2.86
5/13/2018 7:00 AM 73 89 0.09 0 2.87
5/13/2018 8:00 AM 74 90 0.26 0 3.05
5/13/2018 9:00 AM 75 87 0.5 0 3.08
5/13/2018 10:00 AM 78 81 1.22 0 3.73
5/13/2018 11:00 AM 80 75 1.24 0 3.07
5/13/2018 12:00 PM 83 68 2.04 0 3.09
5/13/2018 1:00 PM 85 61 2.6 0 3.57
5/13/2018 2:00 PM 87 56 2.39 0 3.63
5/13/2018 3:00 PM 88 52 2.06 0 4.05
5/13/2018 4:00 PM 88 52 1.12 0 4.03
5/13/2018 5:00 PM 88 52 0.83 0 3.99
5/13/2018 6:00 PM 88 51 0.42 0 3.26
5/13/2018 7:00 PM 87 51 0.14 0 2.39
5/13/2018 8:00 PM 84 57 0.01 0 1.61
5/13/2018 9:00 PM 83 63 0 0 2.89
5/13/2018 10:00 PM 82 66 0 0 4.39
5/13/2018 11:00 PM 80 70 0 0 4.75
Data Summary 76 68 14.92 0.00 3.22